sensor_id;sensor_type;location;lat;lon;timestamp;pressure;altitude;pressure_sealevel;temperature
13410;BMP180;6775;49.574;11.170;2023-12-20T00:02:16;97465.47;;;5.58
13410;BMP180;6775;49.574;11.170;2023-12-20T00:04:44;97461.28;;;5.71
13410;BMP180;6775;49.574;11.170;2023-12-20T00:07:13;97461.66;;;5.79
13410;BMP180;6775;49.574;11.170;2023-12-20T00:09:41;97454.34;;;5.87
13410;BMP180;6775;49.574;11.170;2023-12-20T00:12:10;97458.19;;;5.94
13410;BMP180;6775;49.574;11.170;2023-12-20T00:14:38;97458.69;;;5.99
13410;BMP180;6775;49.574;11.170;2023-12-20T00:17:07;97456.66;;;6.04
13410;BMP180;6775;49.574;11.170;2023-12-20T00:19:35;97440.34;;;6.06
13410;BMP180;6775;49.574;11.170;2023-12-20T00:22:04;97447.72;;;6.11
13410;BMP180;6775;49.574;11.170;2023-12-20T00:24:32;97439.97;;;6.12
13410;BMP180;6775;49.574;11.170;2023-12-20T00:27:00;97438.16;;;6.14
13410;BMP180;6775;49.574;11.170;2023-12-20T00:29:29;97430.41;;;6.16
13410;BMP180;6775;49.574;11.170;2023-12-20T00:31:57;97425.81;;;6.21
13410;BMP180;6775;49.574;11.170;2023-12-20T00:34:26;97419.00;;;6.21
13410;BMP180;6775;49.574;11.170;2023-12-20T00:36:55;97422.25;;;6.23
13410;BMP180;6775;49.574;11.170;2023-12-20T00:39:23;97417.16;;;6.23
13410;BMP180;6775;49.574;11.170;2023-12-20T00:41:52;97420.41;;;6.25
13410;BMP180;6775;49.574;11.170;2023-12-20T00:44:20;97416.94;;;6.26
13410;BMP180;6775;49.574;11.170;2023-12-20T00:46:48;97420.31;;;6.27
13410;BMP180;6775;49.574;11.170;2023-12-20T00:49:16;97415.94;;;6.29
13410;BMP180;6775;49.574;11.170;2023-12-20T00:51:46;97409.00;;;6.31
13410;BMP180;6775;49.574;11.170;2023-12-20T00:54:14;97410.66;;;6.32
13410;BMP180;6775;49.574;11.170;2023-12-20T00:56:43;97407.19;;;6.33
13410;BMP180;6775;49.574;11.170;2023-12-20T00:59:11;97409.63;;;6.34
13410;BMP180;6775;49.574;11.170;2023-12-20T01:01:39;97401.97;;;6.34
13410;BMP180;6775;49.574;11.170;2023-12-20T01:04:09;97406.16;;;6.35
13410;BMP180;6775;49.574;11.170;2023-12-20T01:06:37;97406.25;;;6.34
13410;BMP180;6775;49.574;11.170;2023-12-20T01:09:06;97402.19;;;6.31
13410;BMP180;6775;49.574;11.170;2023-12-20T01:11:35;97397.13;;;6.30
13410;BMP180;6775;49.574;11.170;2023-12-20T01:14:03;97397.13;;;6.30
13410;BMP180;6775;49.574;11.170;2023-12-20T01:16:30;97397.34;;;6.27
13410;BMP180;6775;49.574;11.170;2023-12-20T01:18:58;97393.97;;;6.26
13410;BMP180;6775;49.574;11.170;2023-12-20T01:21:26;97393.06;;;6.27
13410;BMP180;6775;49.574;11.170;2023-12-20T01:23:54;97389.78;;;6.25
13410;BMP180;6775;49.574;11.170;2023-12-20T01:26:24;97386.53;;;6.23
13410;BMP180;6775;49.574;11.170;2023-12-20T01:28:52;97382.13;;;6.25
13410;BMP180;6775;49.574;11.170;2023-12-20T01:31:20;97391.44;;;6.26
13410;BMP180;6775;49.574;11.170;2023-12-20T01:33:48;97386.44;;;6.25
13410;BMP180;6775;49.574;11.170;2023-12-20T01:36:17;97384.88;;;6.22
13410;BMP180;6775;49.574;11.170;2023-12-20T01:38:45;97381.53;;;6.22
13410;BMP180;6775;49.574;11.170;2023-12-20T01:41:13;97382.44;;;6.21
13410;BMP180;6775;49.574;11.170;2023-12-20T01:43:43;97380.06;;;6.18
13410;BMP180;6775;49.574;11.170;2023-12-20T01:46:19;97378.63;;;6.14
13410;BMP180;6775;49.574;11.170;2023-12-20T01:48:48;97371.81;;;6.14
13410;BMP180;6775;49.574;11.170;2023-12-20T01:51:17;97370.16;;;6.13
13410;BMP180;6775;49.574;11.170;2023-12-20T01:53:46;97369.34;;;6.13
13410;BMP180;6775;49.574;11.170;2023-12-20T01:56:15;97368.41;;;6.14
13410;BMP180;6775;49.574;11.170;2023-12-20T01:58:46;97374.47;;;6.13
13410;BMP180;6775;49.574;11.170;2023-12-20T02:01:15;97368.63;;;6.11
13410;BMP180;6775;49.574;11.170;2023-12-20T02:03:45;97373.91;;;6.08
13410;BMP180;6775;49.574;11.170;2023-12-20T02:06:14;97381.56;;;6.08
13410;BMP180;6775;49.574;11.170;2023-12-20T02:08:43;97375.56;;;6.09
13410;BMP180;6775;49.574;11.170;2023-12-20T02:11:11;97379.22;;;6.05
13410;BMP180;6775;49.574;11.170;2023-12-20T02:13:39;97375.75;;;6.06
13410;BMP180;6775;49.574;11.170;2023-12-20T02:16:09;97368.91;;;6.06
13410;BMP180;6775;49.574;11.170;2023-12-20T02:18:36;97362.47;;;6.01
13410;BMP180;6775;49.574;11.170;2023-12-20T02:21:05;97368.50;;;6.00
13410;BMP180;6775;49.574;11.170;2023-12-20T02:23:34;97367.06;;;5.96
13410;BMP180;6775;49.574;11.170;2023-12-20T02:26:04;97372.16;;;5.96
13410;BMP180;6775;49.574;11.170;2023-12-20T02:28:34;97367.97;;;5.95
13410;BMP180;6775;49.574;11.170;2023-12-20T02:31:03;97363.78;;;5.94
13410;BMP180;6775;49.574;11.170;2023-12-20T02:33:31;97362.16;;;5.93
13410;BMP180;6775;49.574;11.170;2023-12-20T02:35:59;97353.94;;;5.88
13410;BMP180;6775;49.574;11.170;2023-12-20T02:38:27;97353.25;;;5.86
13410;BMP180;6775;49.574;11.170;2023-12-20T02:40:57;97347.44;;;5.84
13410;BMP180;6775;49.574;11.170;2023-12-20T02:43:25;97347.78;;;5.78
13410;BMP180;6775;49.574;11.170;2023-12-20T02:45:53;97348.72;;;5.77
13410;BMP180;6775;49.574;11.170;2023-12-20T02:48:22;97354.19;;;5.71
13410;BMP180;6775;49.574;11.170;2023-12-20T02:50:51;97371.28;;;5.69
13410;BMP180;6775;49.574;11.170;2023-12-20T02:53:19;97358.03;;;5.64
13410;BMP180;6775;49.574;11.170;2023-12-20T02:55:47;97372.41;;;5.65
13410;BMP180;6775;49.574;11.170;2023-12-20T02:58:16;97361.69;;;5.60
13410;BMP180;6775;49.574;11.170;2023-12-20T03:00:45;97364.59;;;5.54
13410;BMP180;6775;49.574;11.170;2023-12-20T03:03:14;97358.06;;;5.50
13410;BMP180;6775;49.574;11.170;2023-12-20T03:05:42;97363.25;;;5.49
13410;BMP180;6775;49.574;11.170;2023-12-20T03:08:10;97359.69;;;5.51
13410;BMP180;6775;49.574;11.170;2023-12-20T03:10:38;97367.16;;;5.54
13410;BMP180;6775;49.574;11.170;2023-12-20T03:13:07;97364.41;;;5.57
13410;BMP180;6775;49.574;11.170;2023-12-20T03:15:36;97363.59;;;5.57
13410;BMP180;6775;49.574;11.170;2023-12-20T03:18:05;97366.22;;;5.55
13410;BMP180;6775;49.574;11.170;2023-12-20T03:20:33;97356.22;;;5.52
13410;BMP180;6775;49.574;11.170;2023-12-20T03:23:01;97361.50;;;5.49
13410;BMP180;6775;49.574;11.170;2023-12-20T03:25:30;97366.59;;;5.49
13410;BMP180;6775;49.574;11.170;2023-12-20T03:27:58;97366.59;;;5.49
13410;BMP180;6775;49.574;11.170;2023-12-20T03:30:26;97370.69;;;5.52
13410;BMP180;6775;49.574;11.170;2023-12-20T03:32:55;97370.91;;;5.49
13410;BMP180;6775;49.574;11.170;2023-12-20T03:35:24;97373.44;;;5.49
13410;BMP180;6775;49.574;11.170;2023-12-20T03:37:51;97376.00;;;5.49
13410;BMP180;6775;49.574;11.170;2023-12-20T03:40:19;97381.19;;;5.48
13410;BMP180;6775;49.574;11.170;2023-12-20T03:42:47;97375.19;;;5.49
13410;BMP180;6775;49.574;11.170;2023-12-20T03:45:15;97376.81;;;5.49
13410;BMP180;6775;49.574;11.170;2023-12-20T03:47:44;97378.44;;;5.50
13410;BMP180;6775;49.574;11.170;2023-12-20T03:50:14;97375.81;;;5.52
13410;BMP180;6775;49.574;11.170;2023-12-20T03:52:42;97383.53;;;5.50
13410;BMP180;6775;49.574;11.170;2023-12-20T03:55:10;97387.19;;;5.47
13410;BMP180;6775;49.574;11.170;2023-12-20T03:57:38;97383.13;;;5.44
13410;BMP180;6775;49.574;11.170;2023-12-20T04:00:08;97385.72;;;5.43
13410;BMP180;6775;49.574;11.170;2023-12-20T04:02:37;97385.28;;;5.36
13410;BMP180;6775;49.574;11.170;2023-12-20T04:05:05;97384.50;;;5.36
13410;BMP180;6775;49.574;11.170;2023-12-20T04:07:35;97383.38;;;5.40
13410;BMP180;6775;49.574;11.170;2023-12-20T04:10:05;97383.56;;;5.37
13410;BMP180;6775;49.574;11.170;2023-12-20T04:12:34;97386.94;;;5.37
13410;BMP180;6775;49.574;11.170;2023-12-20T04:15:02;97383.75;;;5.34
13410;BMP180;6775;49.574;11.170;2023-12-20T04:17:35;97390.69;;;5.32
13410;BMP180;6775;49.574;11.170;2023-12-20T04:20:05;97385.56;;;5.32
13410;BMP180;6775;49.574;11.170;2023-12-20T04:22:35;97387.38;;;5.30
13410;BMP180;6775;49.574;11.170;2023-12-20T04:25:04;97382.38;;;5.28
13410;BMP180;6775;49.574;11.170;2023-12-20T04:27:32;97385.88;;;5.27
13410;BMP180;6775;49.574;11.170;2023-12-20T04:30:00;97379.22;;;5.25
13410;BMP180;6775;49.574;11.170;2023-12-20T04:32:29;97383.41;;;5.26
13410;BMP180;6775;49.574;11.170;2023-12-20T04:34:58;97376.47;;;5.28
13410;BMP180;6775;49.574;11.170;2023-12-20T04:37:26;97381.56;;;5.28
13410;BMP180;6775;49.574;11.170;2023-12-20T04:39:56;97379.03;;;5.28
13410;BMP180;6775;49.574;11.170;2023-12-20T04:42:24;97377.38;;;5.27
13410;BMP180;6775;49.574;11.170;2023-12-20T04:44:52;97373.31;;;5.24
13410;BMP180;6775;49.574;11.170;2023-12-20T04:47:20;97380.13;;;5.24
13410;BMP180;6775;49.574;11.170;2023-12-20T04:49:48;97380.13;;;5.24
13410;BMP180;6775;49.574;11.170;2023-12-20T04:52:16;97385.22;;;5.24
13410;BMP180;6775;49.574;11.170;2023-12-20T04:54:45;97385.22;;;5.24
13410;BMP180;6775;49.574;11.170;2023-12-20T04:57:14;97386.84;;;5.25
13410;BMP180;6775;49.574;11.170;2023-12-20T04:59:42;97393.78;;;5.23
13410;BMP180;6775;49.574;11.170;2023-12-20T05:02:11;97400.69;;;5.21
13410;BMP180;6775;49.574;11.170;2023-12-20T05:04:39;97394.78;;;5.20
13410;BMP180;6775;49.574;11.170;2023-12-20T05:07:08;97393.13;;;5.19
13410;BMP180;6775;49.574;11.170;2023-12-20T05:09:36;97394.69;;;5.22
13410;BMP180;6775;49.574;11.170;2023-12-20T05:12:06;97393.88;;;5.21
13410;BMP180;6775;49.574;11.170;2023-12-20T05:14:35;97395.59;;;5.21
13410;BMP180;6775;49.574;11.170;2023-12-20T05:17:04;97420.06;;;5.23
13410;BMP180;6775;49.574;11.170;2023-12-20T05:19:32;97413.31;;;5.22
13410;BMP180;6775;49.574;11.170;2023-12-20T05:22:02;97414.16;;;5.23
13410;BMP180;6775;49.574;11.170;2023-12-20T05:24:30;97406.44;;;5.24
13410;BMP180;6775;49.574;11.170;2023-12-20T05:26:59;97399.69;;;5.23
13410;BMP180;6775;49.574;11.170;2023-12-20T05:29:27;97405.69;;;5.22
13410;BMP180;6775;49.574;11.170;2023-12-20T05:31:58;97416.81;;;5.21
13410;BMP180;6775;49.574;11.170;2023-12-20T05:34:26;97417.63;;;5.22
13410;BMP180;6775;49.574;11.170;2023-12-20T05:36:55;97425.44;;;5.19
13410;BMP180;6775;49.574;11.170;2023-12-20T05:39:23;97422.91;;;5.19
13410;BMP180;6775;49.574;11.170;2023-12-20T05:41:51;97434.78;;;5.18
13410;BMP180;6775;49.574;11.170;2023-12-20T05:44:19;97417.81;;;5.19
13410;BMP180;6775;49.574;11.170;2023-12-20T05:46:48;97411.81;;;5.20
13410;BMP180;6775;49.574;11.170;2023-12-20T05:49:17;97424.53;;;5.20
13410;BMP180;6775;49.574;11.170;2023-12-20T05:51:45;97426.34;;;5.18
13410;BMP180;6775;49.574;11.170;2023-12-20T05:54:13;97434.72;;;5.20
13410;BMP180;6775;49.574;11.170;2023-12-20T05:56:42;97437.19;;;5.21
13410;BMP180;6775;49.574;11.170;2023-12-20T05:59:10;97439.47;;;5.26
13410;BMP180;6775;49.574;11.170;2023-12-20T06:01:38;97447.00;;;5.27
13410;BMP180;6775;49.574;11.170;2023-12-20T06:04:06;97447.00;;;5.27
13410;BMP180;6775;49.574;11.170;2023-12-20T06:06:41;97445.19;;;5.29
13410;BMP180;6775;49.574;11.170;2023-12-20T06:09:09;97438.19;;;5.33
13410;BMP180;6775;49.574;11.170;2023-12-20T06:11:38;97447.44;;;5.34
13410;BMP180;6775;49.574;11.170;2023-12-20T06:14:06;97450.00;;;5.34
13410;BMP180;6775;49.574;11.170;2023-12-20T06:16:34;97454.38;;;5.32
13410;BMP180;6775;49.574;11.170;2023-12-20T06:19:02;97456.03;;;5.33
13410;BMP180;6775;49.574;11.170;2023-12-20T06:21:30;97461.19;;;5.31
13410;BMP180;6775;49.574;11.170;2023-12-20T06:24:00;97470.47;;;5.32
13410;BMP180;6775;49.574;11.170;2023-12-20T06:26:28;97476.41;;;5.33
13410;BMP180;6775;49.574;11.170;2023-12-20T06:28:56;97483.13;;;5.34
13410;BMP180;6775;49.574;11.170;2023-12-20T06:31:24;97482.22;;;5.35
13410;BMP180;6775;49.574;11.170;2023-12-20T06:33:53;97489.69;;;5.38
13410;BMP180;6775;49.574;11.170;2023-12-20T06:36:24;97487.84;;;5.40
13410;BMP180;6775;49.574;11.170;2023-12-20T06:38:53;97482.56;;;5.43
13410;BMP180;6775;49.574;11.170;2023-12-20T06:41:23;97485.13;;;5.43
13410;BMP180;6775;49.574;11.170;2023-12-20T06:43:52;97486.88;;;5.42
13410;BMP180;6775;49.574;11.170;2023-12-20T06:46:21;97487.63;;;5.44
13410;BMP180;6775;49.574;11.170;2023-12-20T06:48:49;97490.59;;;5.50
13410;BMP180;6775;49.574;11.170;2023-12-20T06:51:17;97490.59;;;5.50
13410;BMP180;6775;49.574;11.170;2023-12-20T06:53:47;97493.97;;;5.51
13410;BMP180;6775;49.574;11.170;2023-12-20T06:56:14;97493.88;;;5.52
13410;BMP180;6775;49.574;11.170;2023-12-20T06:58:47;97495.59;;;5.52
13410;BMP180;6775;49.574;11.170;2023-12-20T07:01:16;97490.50;;;5.52
13410;BMP180;6775;49.574;11.170;2023-12-20T07:03:44;97505.72;;;5.53
13410;BMP180;6775;49.574;11.170;2023-12-20T07:06:13;97516.81;;;5.52
13410;BMP180;6775;49.574;11.170;2023-12-20T07:08:43;97521.91;;;5.52
13410;BMP180;6775;49.574;11.170;2023-12-20T07:11:11;97531.19;;;5.53
13410;BMP180;6775;49.574;11.170;2023-12-20T07:13:39;97536.31;;;5.53
13410;BMP180;6775;49.574;11.170;2023-12-20T07:16:09;97533.66;;;5.55
13410;BMP180;6775;49.574;11.170;2023-12-20T07:18:37;97544.66;;;5.55
13410;BMP180;6775;49.574;11.170;2023-12-20T07:21:05;97542.88;;;5.57
13410;BMP180;6775;49.574;11.170;2023-12-20T07:23:34;97553.78;;;5.59
13410;BMP180;6775;49.574;11.170;2023-12-20T07:26:03;97552.69;;;5.63
13410;BMP180;6775;49.574;11.170;2023-12-20T07:28:32;97556.16;;;5.62
13410;BMP180;6775;49.574;11.170;2023-12-20T07:31:00;97554.53;;;5.61
13410;BMP180;6775;49.574;11.170;2023-12-20T07:33:30;97561.25;;;5.62
13410;BMP180;6775;49.574;11.170;2023-12-20T07:36:06;97559.25;;;5.67
13410;BMP180;6775;49.574;11.170;2023-12-20T07:38:34;97568.63;;;5.67
13410;BMP180;6775;49.574;11.170;2023-12-20T07:41:03;97553.41;;;5.65
13410;BMP180;6775;49.574;11.170;2023-12-20T07:43:31;97559.44;;;5.64
13410;BMP180;6775;49.574;11.170;2023-12-20T07:46:05;97561.06;;;5.65
13410;BMP180;6775;49.574;11.170;2023-12-20T07:48:35;97560.16;;;5.66
13410;BMP180;6775;49.574;11.170;2023-12-20T07:51:04;97563.53;;;5.67
13410;BMP180;6775;49.574;11.170;2023-12-20T07:53:33;97559.25;;;5.67
13410;BMP180;6775;49.574;11.170;2023-12-20T07:56:02;97569.28;;;5.70
13410;BMP180;6775;49.574;11.170;2023-12-20T07:58:30;97574.19;;;5.73
13410;BMP180;6775;49.574;11.170;2023-12-20T08:01:17;97570.59;;;5.77
13410;BMP180;6775;49.574;11.170;2023-12-20T08:03:48;97563.47;;;5.82
13410;BMP180;6775;49.574;11.170;2023-12-20T08:06:17;97564.41;;;5.81
13410;BMP180;6775;49.574;11.170;2023-12-20T08:08:45;97567.56;;;5.85
13410;BMP180;6775;49.574;11.170;2023-12-20T08:11:27;97566.78;;;5.84
13410;BMP180;6775;49.574;11.170;2023-12-20T08:13:55;97565.94;;;5.84
13410;BMP180;6775;49.574;11.170;2023-12-20T08:16:23;97561.66;;;5.84
13410;BMP180;6775;49.574;11.170;2023-12-20T08:18:53;97570.84;;;5.87
13410;BMP180;6775;49.574;11.170;2023-12-20T08:21:21;97573.03;;;5.93
13410;BMP180;6775;49.574;11.170;2023-12-20T08:23:50;97559.94;;;5.99
13410;BMP180;6775;49.574;11.170;2023-12-20T08:26:19;97569.09;;;6.01
13410;BMP180;6775;49.574;11.170;2023-12-20T08:28:48;97582.69;;;6.02
13410;BMP180;6775;49.574;11.170;2023-12-20T08:31:17;97582.78;;;6.00
13410;BMP180;6775;49.574;11.170;2023-12-20T08:33:47;97582.13;;;5.97
13410;BMP180;6775;49.574;11.170;2023-12-20T08:36:17;97570.41;;;5.94
13410;BMP180;6775;49.574;11.170;2023-12-20T08:38:45;97584.16;;;5.92
13410;BMP180;6775;49.574;11.170;2023-12-20T08:41:14;97579.97;;;5.91
13410;BMP180;6775;49.574;11.170;2023-12-20T08:43:42;97578.50;;;5.87
13410;BMP180;6775;49.574;11.170;2023-12-20T08:46:10;97571.88;;;5.84
13410;BMP180;6775;49.574;11.170;2023-12-20T08:48:39;97573.31;;;5.88
13410;BMP180;6775;49.574;11.170;2023-12-20T08:51:07;97568.66;;;5.95
13410;BMP180;6775;49.574;11.170;2023-12-20T08:53:37;97585.53;;;5.97
13410;BMP180;6775;49.574;11.170;2023-12-20T08:56:06;97586.53;;;5.95
13410;BMP180;6775;49.574;11.170;2023-12-20T08:58:34;97581.50;;;5.93
13410;BMP180;6775;49.574;11.170;2023-12-20T09:01:03;97579.88;;;5.92
13410;BMP180;6775;49.574;11.170;2023-12-20T09:03:31;97575.66;;;6.05
13410;BMP180;6775;49.574;11.170;2023-12-20T09:06:00;97578.72;;;6.24
13410;BMP180;6775;49.574;11.170;2023-12-20T09:08:27;97581.19;;;6.39
13410;BMP180;6775;49.574;11.170;2023-12-20T09:10:57;97579.22;;;6.56
13410;BMP180;6775;49.574;11.170;2023-12-20T09:13:25;97577.69;;;6.80
13410;BMP180;6775;49.574;11.170;2023-12-20T09:15:55;97577.81;;;6.91
13410;BMP180;6775;49.574;11.170;2023-12-20T09:18:24;97582.34;;;7.00
13410;BMP180;6775;49.574;11.170;2023-12-20T09:20:52;97582.03;;;7.04
13410;BMP180;6775;49.574;11.170;2023-12-20T09:23:21;97580.00;;;6.97
13410;BMP180;6775;49.574;11.170;2023-12-20T09:25:49;97574.53;;;6.89
13410;BMP180;6775;49.574;11.170;2023-12-20T09:28:21;97578.59;;;6.79
13410;BMP180;6775;49.574;11.170;2023-12-20T09:30:49;97580.72;;;6.73
13410;BMP180;6775;49.574;11.170;2023-12-20T09:33:17;97590.50;;;6.66
13410;BMP180;6775;49.574;11.170;2023-12-20T09:35:46;97590.69;;;6.63
13410;BMP180;6775;49.574;11.170;2023-12-20T09:38:14;97588.69;;;6.68
13410;BMP180;6775;49.574;11.170;2023-12-20T09:40:44;97589.28;;;6.72
13410;BMP180;6775;49.574;11.170;2023-12-20T09:43:15;97592.84;;;6.69
13410;BMP180;6775;49.574;11.170;2023-12-20T09:45:47;97595.59;;;6.66
13410;BMP180;6775;49.574;11.170;2023-12-20T09:48:18;97602.78;;;6.74
13410;BMP180;6775;49.574;11.170;2023-12-20T09:50:47;97599.19;;;7.02
13410;BMP180;6775;49.574;11.170;2023-12-20T09:53:21;97599.69;;;7.34
13410;BMP180;6775;49.574;11.170;2023-12-20T09:55:51;97586.31;;;7.55
13410;BMP180;6775;49.574;11.170;2023-12-20T09:58:19;97590.31;;;7.59
13410;BMP180;6775;49.574;11.170;2023-12-20T10:00:50;97590.41;;;7.57
13410;BMP180;6775;49.574;11.170;2023-12-20T10:03:25;97601.25;;;7.61
13410;BMP180;6775;49.574;11.170;2023-12-20T10:05:56;97598.22;;;7.68
13410;BMP180;6775;49.574;11.170;2023-12-20T10:08:25;97593.59;;;7.73
13410;BMP180;6775;49.574;11.170;2023-12-20T10:10:54;97586.25;;;7.81
13410;BMP180;6775;49.574;11.170;2023-12-20T10:13:25;97583.97;;;7.77
13410;BMP180;6775;49.574;11.170;2023-12-20T10:15:55;97584.88;;;7.63
13410;BMP180;6775;49.574;11.170;2023-12-20T10:18:24;97580.16;;;7.45
13410;BMP180;6775;49.574;11.170;2023-12-20T10:21:06;97588.41;;;7.24
13410;BMP180;6775;49.574;11.170;2023-12-20T10:23:34;97579.28;;;7.07
13410;BMP180;6775;49.574;11.170;2023-12-20T10:26:02;97578.53;;;6.93
13410;BMP180;6775;49.574;11.170;2023-12-20T10:28:34;97576.78;;;6.81
13410;BMP180;6775;49.574;11.170;2023-12-20T10:31:04;97577.88;;;6.77
13410;BMP180;6775;49.574;11.170;2023-12-20T10:33:32;97572.31;;;6.71
13410;BMP180;6775;49.574;11.170;2023-12-20T10:36:01;97561.50;;;6.67
13410;BMP180;6775;49.574;11.170;2023-12-20T10:38:29;97565.16;;;6.63
13410;BMP180;6775;49.574;11.170;2023-12-20T10:40:58;97567.09;;;6.60
13410;BMP180;6775;49.574;11.170;2023-12-20T10:43:29;97569.19;;;6.53
13410;BMP180;6775;49.574;11.170;2023-12-20T10:45:59;97567.31;;;6.43
13410;BMP180;6775;49.574;11.170;2023-12-20T10:48:31;97566.75;;;6.38
13410;BMP180;6775;49.574;11.170;2023-12-20T10:51:01;97560.94;;;6.36
13410;BMP180;6775;49.574;11.170;2023-12-20T10:53:30;97561.75;;;6.37
13410;BMP180;6775;49.574;11.170;2023-12-20T10:56:02;97560.94;;;6.36
13410;BMP180;6775;49.574;11.170;2023-12-20T10:58:33;97555.75;;;6.38
13410;BMP180;6775;49.574;11.170;2023-12-20T11:01:04;97566.56;;;6.41
13410;BMP180;6775;49.574;11.170;2023-12-20T11:03:36;97552.81;;;6.44
13410;BMP180;6775;49.574;11.170;2023-12-20T11:06:12;97553.25;;;6.50
13410;BMP180;6775;49.574;11.170;2023-12-20T11:08:49;97540.72;;;6.59
13410;BMP180;6775;49.574;11.170;2023-12-20T11:11:29;97535.75;;;6.70
13410;BMP180;6775;49.574;11.170;2023-12-20T11:14:04;97534.97;;;6.82
13410;BMP180;6775;49.574;11.170;2023-12-20T11:16:38;97534.38;;;6.91
13410;BMP180;6775;49.574;11.170;2023-12-20T11:19:19;97541.13;;;6.92
13410;BMP180;6775;49.574;11.170;2023-12-20T11:21:47;97539.88;;;6.85
13410;BMP180;6775;49.574;11.170;2023-12-20T11:24:16;97542.63;;;6.82
13410;BMP180;6775;49.574;11.170;2023-12-20T11:26:47;97531.69;;;6.80
13410;BMP180;6775;49.574;11.170;2023-12-20T11:29:33;97540.06;;;6.82
13410;BMP180;6775;49.574;11.170;2023-12-20T11:32:03;97534.16;;;6.82
13410;BMP180;6775;49.574;11.170;2023-12-20T11:34:36;97532.22;;;6.85
13410;BMP180;6775;49.574;11.170;2023-12-20T11:37:04;97530.50;;;6.86
13410;BMP180;6775;49.574;11.170;2023-12-20T11:39:32;97532.75;;;6.90
13410;BMP180;6775;49.574;11.170;2023-12-20T11:42:05;97541.09;;;6.80
13410;BMP180;6775;49.574;11.170;2023-12-20T11:44:36;97537.09;;;6.76
13410;BMP180;6775;49.574;11.170;2023-12-20T11:47:04;97533.09;;;6.72
13410;BMP180;6775;49.574;11.170;2023-12-20T11:49:33;97527.19;;;6.71
13410;BMP180;6775;49.574;11.170;2023-12-20T11:52:03;97532.28;;;6.71
13410;BMP180;6775;49.574;11.170;2023-12-20T11:54:31;97529.53;;;6.74
13410;BMP180;6775;49.574;11.170;2023-12-20T11:57:00;97534.75;;;6.73
13410;BMP180;6775;49.574;11.170;2023-12-20T11:59:28;97523.91;;;6.69
13410;BMP180;6775;49.574;11.170;2023-12-20T12:01:56;97535.97;;;6.67
13410;BMP180;6775;49.574;11.170;2023-12-20T12:04:28;97521.53;;;6.66
13410;BMP180;6775;49.574;11.170;2023-12-20T12:06:57;97530.19;;;6.64
13410;BMP180;6775;49.574;11.170;2023-12-20T12:09:26;97528.50;;;6.64
13410;BMP180;6775;49.574;11.170;2023-12-20T12:11:54;97525.94;;;6.64
13410;BMP180;6775;49.574;11.170;2023-12-20T12:14:23;97520.00;;;6.64
13410;BMP180;6775;49.574;11.170;2023-12-20T12:16:52;97506.41;;;6.63
13410;BMP180;6775;49.574;11.170;2023-12-20T12:19:21;97515.06;;;6.61
13410;BMP180;6775;49.574;11.170;2023-12-20T12:21:50;97512.63;;;6.59
13410;BMP180;6775;49.574;11.170;2023-12-20T12:24:20;97509.97;;;6.61
13410;BMP180;6775;49.574;11.170;2023-12-20T12:26:58;97514.97;;;6.62
13410;BMP180;6775;49.574;11.170;2023-12-20T12:29:27;97521.03;;;6.61
13410;BMP180;6775;49.574;11.170;2023-12-20T12:31:55;97517.72;;;6.59
13410;BMP180;6775;49.574;11.170;2023-12-20T12:34:24;97511.00;;;6.58
13410;BMP180;6775;49.574;11.170;2023-12-20T12:36:53;97502.81;;;6.53
13410;BMP180;6775;49.574;11.170;2023-12-20T12:39:23;97513.22;;;6.51
13410;BMP180;6775;49.574;11.170;2023-12-20T12:41:51;97511.56;;;6.50
13410;BMP180;6775;49.574;11.170;2023-12-20T12:44:21;97503.00;;;6.51
13410;BMP180;6775;49.574;11.170;2023-12-20T12:46:50;97504.25;;;6.57
13410;BMP180;6775;49.574;11.170;2023-12-20T12:49:20;97496.31;;;6.62
13410;BMP180;6775;49.574;11.170;2023-12-20T12:52:00;97500.41;;;6.64
13410;BMP180;6775;49.574;11.170;2023-12-20T12:54:29;97502.00;;;6.65
13410;BMP180;6775;49.574;11.170;2023-12-20T12:56:58;97494.44;;;6.64
13410;BMP180;6775;49.574;11.170;2023-12-20T12:59:26;97493.84;;;6.60
13410;BMP180;6775;49.574;11.170;2023-12-20T13:01:54;97494.84;;;6.58
13410;BMP180;6775;49.574;11.170;2023-12-20T13:04:22;97493.34;;;6.55
13410;BMP180;6775;49.574;11.170;2023-12-20T13:06:51;97494.44;;;6.52
13410;BMP180;6775;49.574;11.170;2023-12-20T13:09:20;97501.34;;;6.50
13410;BMP180;6775;49.574;11.170;2023-12-20T13:11:49;97491.16;;;6.50
13410;BMP180;6775;49.574;11.170;2023-12-20T13:14:17;97496.88;;;6.53
13410;BMP180;6775;49.574;11.170;2023-12-20T13:16:45;97499.34;;;6.54
13410;BMP180;6775;49.574;11.170;2023-12-20T13:19:14;97497.69;;;6.53
13410;BMP180;6775;49.574;11.170;2023-12-20T13:21:42;97511.56;;;6.50
13410;BMP180;6775;49.574;11.170;2023-12-20T13:24:10;97505.03;;;6.46
13410;BMP180;6775;49.574;11.170;2023-12-20T13:26:40;97503.78;;;6.39
13410;BMP180;6775;49.574;11.170;2023-12-20T13:29:08;97500.50;;;6.37
13410;BMP180;6775;49.574;11.170;2023-12-20T13:31:36;97510.19;;;6.32
13410;BMP180;6775;49.574;11.170;2023-12-20T13:34:04;97501.78;;;6.30
13410;BMP180;6775;49.574;11.170;2023-12-20T13:36:33;97513.84;;;6.28
13410;BMP180;6775;49.574;11.170;2023-12-20T13:39:03;97491.78;;;6.27
13410;BMP180;6775;49.574;11.170;2023-12-20T13:41:32;97503.72;;;6.26
13410;BMP180;6775;49.574;11.170;2023-12-20T13:44:01;97494.63;;;6.22
13410;BMP180;6775;49.574;11.170;2023-12-20T13:46:30;97495.75;;;6.18
13410;BMP180;6775;49.574;11.170;2023-12-20T13:48:58;97503.47;;;6.17
13410;BMP180;6775;49.574;11.170;2023-12-20T13:51:27;97498.34;;;6.17
13410;BMP180;6775;49.574;11.170;2023-12-20T13:53:55;97495.09;;;6.15
13410;BMP180;6775;49.574;11.170;2023-12-20T13:56:25;97495.91;;;6.15
13410;BMP180;6775;49.574;11.170;2023-12-20T13:58:53;97490.09;;;6.13
13410;BMP180;6775;49.574;11.170;2023-12-20T14:01:23;97490.19;;;6.12
13410;BMP180;6775;49.574;11.170;2023-12-20T14:03:52;97497.94;;;6.10
13410;BMP180;6775;49.574;11.170;2023-12-20T14:06:20;97500.38;;;6.12
13410;BMP180;6775;49.574;11.170;2023-12-20T14:08:48;97493.63;;;6.11
13410;BMP180;6775;49.574;11.170;2023-12-20T14:11:16;97498.75;;;6.11
13410;BMP180;6775;49.574;11.170;2023-12-20T14:13:45;97493.03;;;6.07
13410;BMP180;6775;49.574;11.170;2023-12-20T14:16:14;97487.13;;;6.07
13410;BMP180;6775;49.574;11.170;2023-12-20T14:18:44;97498.22;;;6.06
13410;BMP180;6775;49.574;11.170;2023-12-20T14:21:13;97494.03;;;6.05
13410;BMP180;6775;49.574;11.170;2023-12-20T14:23:41;97492.38;;;6.04
13410;BMP180;6775;49.574;11.170;2023-12-20T14:26:12;97486.47;;;6.03
13410;BMP180;6775;49.574;11.170;2023-12-20T14:28:41;97473.00;;;6.02
13410;BMP180;6775;49.574;11.170;2023-12-20T14:31:10;97471.16;;;6.03
13410;BMP180;6775;49.574;11.170;2023-12-20T14:33:38;97464.22;;;6.05